Time;durP1;ratioP1;P1;durP2;ratioP2;P2;SDS_P1;SDS_P2;PMS_P1;PMS_P2;Temp;Humidity;BMP_temperature;BMP_pressure;BME280_temperature;BME280_humidity;BME280_pressure;Samples;Min_cycle;Max_cycle;Signal;HPM_P1;HPM_P2
2023/10/25 00:00:48;;;;;;;;;;;17.30;84.80;;;;;;5040940;27;77727;-38
2023/10/25 00:03:15;;;;;;;;;;;17.30;84.90;;;;;;5035258;27;77747;-38
2023/10/25 00:05:41;;;;;;;;;;;17.20;84.80;;;;;;5040970;27;76043;-39
2023/10/25 00:08:07;;;;;;;;;;;17.30;84.80;;;;;;5035167;27;75237;-38
2023/10/25 00:10:32;;;;;;;;;;;17.30;84.90;;;;;;5043993;27;79271;-38
2023/10/25 00:12:58;;;;;;;;;;;17.30;84.80;;;;;;5033946;27;76264;-38
2023/10/25 00:15:23;;;;;;;;;;;17.30;84.70;;;;;;5035721;27;76913;-38
2023/10/25 00:17:49;;;;;;;;;;;17.20;84.80;;;;;;5020865;27;77081;-38
2023/10/25 00:20:14;;;;;;;;;;;17.30;84.80;;;;;;5038588;27;73536;-37
2023/10/25 00:22:40;;;;;;;;;;;17.20;84.60;;;;;;5039793;27;77036;-37
2023/10/25 00:25:05;;;;;;;;;;;17.20;84.70;;;;;;5044900;27;76395;-37
2023/10/25 00:27:31;;;;;;;;;;;17.20;84.70;;;;;;5038874;27;74572;-38
2023/10/25 00:29:56;;;;;;;;;;;17.20;84.70;;;;;;5033750;27;79234;-37
2023/10/25 00:32:22;;;;;;;;;;;17.20;84.70;;;;;;5038326;27;75582;-37
2023/10/25 00:34:47;;;;;;;;;;;17.20;84.70;;;;;;5038831;27;77643;-38
2023/10/25 00:37:13;;;;;;;;;;;17.20;84.70;;;;;;5042887;27;77799;-37
2023/10/25 00:39:38;;;;;;;;;;;17.30;84.80;;;;;;5047340;27;72089;-37
2023/10/25 00:42:04;;;;;;;;;;;17.20;84.70;;;;;;5035266;27;77040;-37
2023/10/25 00:44:29;;;;;;;;;;;17.20;84.70;;;;;;5038240;27;75914;-37
2023/10/25 00:46:55;;;;;;;;;;;17.20;84.80;;;;;;5035397;27;74711;-38
2023/10/25 00:49:21;;;;;;;;;;;17.20;84.80;;;;;;5038707;27;74119;-37
2023/10/25 00:51:46;;;;;;;;;;;17.20;84.80;;;;;;5042509;27;76348;-37
2023/10/25 00:54:13;;;;;;;;;;;17.20;84.70;;;;;;5033670;27;75039;-37
2023/10/25 00:56:39;;;;;;;;;;;17.20;84.80;;;;;;5038034;27;74055;-37
2023/10/25 00:59:06;;;;;;;;;;;17.20;84.60;;;;;;5036172;27;75772;-38
2023/10/25 01:01:32;;;;;;;;;;;17.20;84.60;;;;;;5037298;27;74624;-37
2023/10/25 01:03:57;;;;;;;;;;;17.20;85.50;;;;;;5038705;27;71617;-37
2023/10/25 01:06:23;;;;;;;;;;;17.20;84.70;;;;;;5041478;27;77994;-37
2023/10/25 01:08:49;;;;;;;;;;;17.20;84.80;;;;;;5036866;27;75987;-37
2023/10/25 01:11:15;;;;;;;;;;;17.20;84.70;;;;;;5039729;27;73543;-37
2023/10/25 01:13:41;;;;;;;;;;;17.20;84.80;;;;;;5031059;27;71201;-37
2023/10/25 01:16:07;;;;;;;;;;;17.20;84.80;;;;;;5036155;27;76731;-37
2023/10/25 01:18:32;;;;;;;;;;;17.10;84.60;;;;;;5033969;27;74693;-37
2023/10/25 01:20:58;;;;;;;;;;;17.20;84.60;;;;;;5035523;27;75112;-37
2023/10/25 01:23:24;;;;;;;;;;;17.20;84.80;;;;;;5038621;27;74740;-38
2023/10/25 01:25:52;;;;;;;;;;;17.10;84.70;;;;;;5042060;27;77163;-37
2023/10/25 01:28:17;;;;;;;;;;;17.10;84.70;;;;;;5040689;27;78191;-37
2023/10/25 01:30:43;;;;;;;;;;;17.10;84.70;;;;;;5037638;27;79495;-37
2023/10/25 01:33:08;;;;;;;;;;;17.10;84.80;;;;;;5033655;27;77517;-37
2023/10/25 01:35:34;;;;;;;;;;;17.20;84.80;;;;;;5042382;27;74176;-38
2023/10/25 01:38:00;;;;;;;;;;;17.10;84.60;;;;;;5039953;27;71384;-37
2023/10/25 01:40:26;;;;;;;;;;;17.20;84.70;;;;;;5035537;27;76942;-37
2023/10/25 01:42:53;;;;;;;;;;;17.10;84.70;;;;;;5039739;27;81289;-37
2023/10/25 01:45:19;;;;;;;;;;;17.10;84.70;;;;;;5036183;27;72718;-37
2023/10/25 01:47:44;;;;;;;;;;;17.10;84.70;;;;;;5038940;27;75786;-37
2023/10/25 01:50:10;;;;;;;;;;;17.10;84.60;;;;;;5036533;27;78304;-37
2023/10/25 01:52:36;;;;;;;;;;;17.10;84.70;;;;;;5035915;27;73242;-37
2023/10/25 01:55:02;;;;;;;;;;;17.10;84.60;;;;;;5035659;27;75846;-37
2023/10/25 01:57:27;;;;;;;;;;;17.10;84.70;;;;;;5038028;27;76570;-37
2023/10/25 01:59:53;;;;;;;;;;;17.10;84.60;;;;;;5036604;27;78283;-37
2023/10/25 02:02:18;;;;;;;;;;;17.10;84.60;;;;;;5035312;27;76296;-37
2023/10/25 02:04:44;;;;;;;;;;;17.10;84.60;;;;;;5038502;27;74827;-38
2023/10/25 02:07:10;;;;;;;;;;;17.10;84.60;;;;;;5046728;27;76849;-37
2023/10/25 02:09:35;;;;;;;;;;;17.10;84.70;;;;;;5040447;27;75278;-37
2023/10/25 02:12:01;;;;;;;;;;;17.10;84.70;;;;;;5041620;27;77061;-37
2023/10/25 02:14:26;;;;;;;;;;;17.00;84.70;;;;;;5043157;27;73852;-37
2023/10/25 02:16:52;;;;;;;;;;;17.10;84.70;;;;;;5038267;27;77088;-37
2023/10/25 02:19:17;;;;;;;;;;;17.00;84.60;;;;;;5043714;27;76612;-37
2023/10/25 02:21:43;;;;;;;;;;;17.10;84.60;;;;;;5041765;27;74174;-38
2023/10/25 02:24:12;;;;;;;;;;;17.00;84.60;;;;;;5040737;27;78486;-37
2023/10/25 02:26:37;;;;;;;;;;;17.00;84.60;;;;;;5036602;27;79529;-37
2023/10/25 02:29:03;;;;;;;;;;;17.00;84.60;;;;;;5039476;27;78602;-37
2023/10/25 02:31:28;;;;;;;;;;;17.10;84.70;;;;;;5037632;27;75121;-37
2023/10/25 02:33:54;;;;;;;;;;;17.00;84.50;;;;;;5045871;27;72615;-37
2023/10/25 02:36:20;;;;;;;;;;;17.00;84.60;;;;;;5037143;27;75225;-37
2023/10/25 02:38:48;;;;;;;;;;;17.00;84.50;;;;;;5042781;27;75708;-37
2023/10/25 02:41:14;;;;;;;;;;;17.00;84.50;;;;;;5038250;27;72694;-37
2023/10/25 02:43:39;;;;;;;;;;;17.00;84.50;;;;;;5041210;27;79615;-37
2023/10/25 02:46:09;;;;;;;;;;;17.00;84.50;;;;;;5039278;27;73049;-37
2023/10/25 02:48:34;;;;;;;;;;;17.00;84.50;;;;;;5039566;27;77306;-37
2023/10/25 02:51:00;;;;;;;;;;;17.00;84.40;;;;;;5037409;27;73842;-37
2023/10/25 02:53:26;;;;;;;;;;;17.00;84.40;;;;;;5036419;27;76497;-38
2023/10/25 02:55:57;;;;;;;;;;;17.00;84.30;;;;;;5037554;27;74363;-37
2023/10/25 02:58:22;;;;;;;;;;;17.00;84.40;;;;;;5043396;27;73500;-38
2023/10/25 03:00:48;;;;;;;;;;;17.00;84.40;;;;;;5034699;27;75804;-39
2023/10/25 03:03:13;;;;;;;;;;;17.00;84.40;;;;;;5039711;27;73588;-37
2023/10/25 03:05:39;;;;;;;;;;;17.00;84.40;;;;;;5039288;27;78154;-37
2023/10/25 03:08:04;;;;;;;;;;;17.00;84.40;;;;;;5042694;27;77665;-37
2023/10/25 03:10:30;;;;;;;;;;;17.00;84.40;;;;;;5039982;27;74645;-37
2023/10/25 03:12:55;;;;;;;;;;;17.00;84.30;;;;;;5040366;27;76949;-37
2023/10/25 03:15:21;;;;;;;;;;;17.00;84.20;;;;;;5041629;27;73086;-37
2023/10/25 03:17:46;;;;;;;;;;;17.00;84.30;;;;;;5043747;27;74696;-37
2023/10/25 03:20:12;;;;;;;;;;;17.00;84.20;;;;;;5038486;27;73424;-37
2023/10/25 03:22:37;;;;;;;;;;;17.00;84.20;;;;;;5038978;27;74960;-37
2023/10/25 03:25:03;;;;;;;;;;;17.00;84.10;;;;;;5041021;27;76816;-37
2023/10/25 03:27:29;;;;;;;;;;;17.00;84.90;;;;;;5043470;27;73533;-37
2023/10/25 03:29:55;;;;;;;;;;;17.00;84.20;;;;;;5037878;27;74284;-37
2023/10/25 03:32:20;;;;;;;;;;;17.00;84.10;;;;;;5042299;27;77943;-37
2023/10/25 03:34:46;;;;;;;;;;;17.00;84.10;;;;;;5038017;27;80128;-37
2023/10/25 03:37:11;;;;;;;;;;;17.00;84.10;;;;;;5041007;27;72025;-37
2023/10/25 03:39:37;;;;;;;;;;;17.00;84.10;;;;;;5036840;27;73530;-37
2023/10/25 03:42:03;;;;;;;;;;;17.00;84.10;;;;;;5037643;27;75433;-36
2023/10/25 03:44:29;;;;;;;;;;;17.00;84.10;;;;;;5042885;27;73442;-37
2023/10/25 03:46:54;;;;;;;;;;;16.90;84.00;;;;;;5025482;27;74559;-37
2023/10/25 03:49:20;;;;;;;;;;;16.90;83.80;;;;;;5037387;27;76637;-36
2023/10/25 03:51:46;;;;;;;;;;;16.90;83.90;;;;;;5037122;27;75962;-37
2023/10/25 03:54:11;;;;;;;;;;;17.00;83.90;;;;;;5045924;27;71946;-37
2023/10/25 03:56:36;;;;;;;;;;;16.90;84.00;;;;;;5034862;27;82058;-37
2023/10/25 03:59:02;;;;;;;;;;;16.90;83.70;;;;;;5033759;27;81301;-37
2023/10/25 04:01:27;;;;;;;;;;;17.00;83.80;;;;;;5034790;27;72572;-36
2023/10/25 04:03:53;;;;;;;;;;;16.90;83.70;;;;;;5033894;27;77051;-37
2023/10/25 04:06:18;;;;;;;;;;;17.00;83.70;;;;;;5020815;28;74343;-37
2023/10/25 04:08:44;;;;;;;;;;;16.90;83.50;;;;;;5036257;27;76822;-37
2023/10/25 04:11:09;;;;;;;;;;;16.90;83.50;;;;;;5036118;27;73824;-37
2023/10/25 04:13:35;;;;;;;;;;;16.90;84.20;;;;;;5041677;27;75464;-37
2023/10/25 04:16:01;;;;;;;;;;;17.00;83.50;;;;;;5032270;27;77305;-36
2023/10/25 04:18:27;;;;;;;;;;;16.90;84.20;;;;;;5029737;27;73472;-37
2023/10/25 04:20:53;;;;;;;;;;;17.00;84.10;;;;;;5035529;27;78156;-36
2023/10/25 04:23:19;;;;;;;;;;;17.00;83.90;;;;;;5034345;27;72965;-37
2023/10/25 04:25:45;;;;;;;;;;;17.00;83.80;;;;;;5037388;27;78773;-38
2023/10/25 04:28:11;;;;;;;;;;;17.00;83.80;;;;;;5037993;27;78005;-37
2023/10/25 04:30:36;;;;;;;;;;;16.90;83.90;;;;;;5039855;27;76020;-37
2023/10/25 04:33:02;;;;;;;;;;;16.90;83.90;;;;;;5032843;27;76513;-38
2023/10/25 04:35:28;;;;;;;;;;;16.90;84.00;;;;;;5033682;27;80431;-37
2023/10/25 04:37:55;;;;;;;;;;;17.00;84.20;;;;;;5037436;27;72566;-37
2023/10/25 04:40:21;;;;;;;;;;;17.00;84.40;;;;;;5033520;27;77678;-37
2023/10/25 04:42:49;;;;;;;;;;;17.00;84.90;;;;;;5037310;27;77536;-37
2023/10/25 04:45:15;;;;;;;;;;;17.00;84.90;;;;;;5034115;27;77832;-37
2023/10/25 04:47:41;;;;;;;;;;;17.00;85.00;;;;;;5035960;27;78728;-37
2023/10/25 04:50:06;;;;;;;;;;;17.00;84.90;;;;;;5035628;27;74712;-37
2023/10/25 04:52:32;;;;;;;;;;;17.00;84.90;;;;;;5035313;27;75481;-37
2023/10/25 04:54:57;;;;;;;;;;;17.00;84.90;;;;;;5034748;27;75127;-37
2023/10/25 04:57:23;;;;;;;;;;;17.00;84.90;;;;;;5037325;27;76850;-37
2023/10/25 04:59:48;;;;;;;;;;;17.00;84.90;;;;;;5043579;27;74973;-37
2023/10/25 05:02:14;;;;;;;;;;;17.00;84.70;;;;;;5042814;27;76011;-37
2023/10/25 05:04:40;;;;;;;;;;;17.00;84.70;;;;;;5039981;27;73785;-37
2023/10/25 05:07:06;;;;;;;;;;;17.00;84.60;;;;;;5030202;27;74951;-37
2023/10/25 05:09:32;;;;;;;;;;;17.00;85.20;;;;;;5040219;27;78849;-38
2023/10/25 05:12:03;;;;;;;;;;;17.10;85.20;;;;;;5033409;27;76050;-37
2023/10/25 05:14:29;;;;;;;;;;;17.10;85.30;;;;;;5036339;27;73979;-37
2023/10/25 05:16:55;;;;;;;;;;;17.10;85.20;;;;;;5026180;27;81856;-37
2023/10/25 05:19:20;;;;;;;;;;;17.10;85.50;;;;;;5035821;27;72249;-38
2023/10/25 05:21:49;;;;;;;;;;;17.10;86.20;;;;;;5034158;27;73443;-39
2023/10/25 05:24:15;;;;;;;;;;;17.20;86.50;;;;;;5026961;27;78394;-40
2023/10/25 05:26:41;;;;;;;;;;;17.20;86.70;;;;;;5031519;27;76773;-40
2023/10/25 05:29:06;;;;;;;;;;;17.20;86.00;;;;;;5032460;27;75104;-40
2023/10/25 05:31:33;;;;;;;;;;;17.20;85.90;;;;;;5031398;27;77325;-39
2023/10/25 05:33:59;;;;;;;;;;;17.20;85.40;;;;;;5029582;27;77731;-40
2023/10/25 05:36:25;;;;;;;;;;;17.30;85.10;;;;;;5029773;27;77074;-40
2023/10/25 05:38:50;;;;;;;;;;;17.30;84.90;;;;;;5034331;27;75681;-37
2023/10/25 05:41:19;;;;;;;;;;;17.30;85.00;;;;;;5033675;27;72814;-38
2023/10/25 05:43:46;;;;;;;;;;;17.40;85.20;;;;;;5042598;27;76629;-37
2023/10/25 05:46:11;;;;;;;;;;;17.50;84.70;;;;;;5038325;27;74297;-37
2023/10/25 05:48:37;;;;;;;;;;;17.60;84.30;;;;;;5040002;27;77418;-37
2023/10/25 05:51:04;;;;;;;;;;;17.60;84.00;;;;;;5042936;27;74472;-38
2023/10/25 05:53:30;;;;;;;;;;;17.70;83.40;;;;;;5045035;27;73515;-36
2023/10/25 05:55:55;;;;;;;;;;;17.80;83.20;;;;;;5047418;27;71717;-37
2023/10/25 05:58:21;;;;;;;;;;;17.70;83.10;;;;;;5041534;27;79460;-38
2023/10/25 06:00:52;;;;;;;;;;;17.80;83.00;;;;;;5038533;27;74751;-36
2023/10/25 06:03:19;;;;;;;;;;;17.80;82.80;;;;;;5046041;27;74096;-37
2023/10/25 06:05:50;;;;;;;;;;;17.80;82.50;;;;;;5050330;27;74014;-37
2023/10/25 06:08:15;;;;;;;;;;;17.80;82.40;;;;;;5043583;27;74403;-38
2023/10/25 06:10:41;;;;;;;;;;;17.90;82.10;;;;;;5037738;27;78130;-36
2023/10/25 06:13:09;;;;;;;;;;;17.90;82.10;;;;;;5039497;27;76019;-37
2023/10/25 06:15:35;;;;;;;;;;;17.90;81.90;;;;;;5029844;27;73189;-36
2023/10/25 06:18:02;;;;;;;;;;;17.90;81.70;;;;;;5047288;27;73068;-37
2023/10/25 06:20:28;;;;;;;;;;;18.00;81.50;;;;;;5045289;27;73322;-36
2023/10/25 06:22:56;;;;;;;;;;;18.00;81.30;;;;;;5044349;27;81154;-37
2023/10/25 06:25:24;;;;;;;;;;;18.00;81.20;;;;;;5044663;27;75566;-37
2023/10/25 06:27:50;;;;;;;;;;;18.00;81.90;;;;;;5032994;27;73874;-40
2023/10/25 06:30:18;;;;;;;;;;;18.00;80.90;;;;;;5031678;27;79559;-39
2023/10/25 06:32:43;;;;;;;;;;;18.00;81.00;;;;;;5037186;27;74613;-37
2023/10/25 06:35:09;;;;;;;;;;;18.10;80.60;;;;;;5040175;27;78145;-38
2023/10/25 06:37:34;;;;;;;;;;;18.10;80.30;;;;;;5043153;27;74922;-38
2023/10/25 06:40:00;;;;;;;;;;;18.20;80.20;;;;;;5041248;27;71893;-38
2023/10/25 06:42:25;;;;;;;;;;;18.20;79.90;;;;;;5042344;27;74812;-38
2023/10/25 06:44:51;;;;;;;;;;;18.20;80.20;;;;;;5043026;27;78321;-38
2023/10/25 06:47:17;;;;;;;;;;;18.20;79.90;;;;;;5033971;27;77378;-38
2023/10/25 06:49:42;;;;;;;;;;;18.20;79.90;;;;;;5044451;27;74383;-37
2023/10/25 06:52:08;;;;;;;;;;;18.20;79.80;;;;;;5046201;27;79214;-38
2023/10/25 06:54:34;;;;;;;;;;;18.20;79.60;;;;;;5038781;27;74500;-39
2023/10/25 06:57:00;;;;;;;;;;;18.20;79.90;;;;;;5038747;27;73224;-38
2023/10/25 06:59:25;;;;;;;;;;;18.20;79.60;;;;;;5037852;27;75375;-39
2023/10/25 07:01:57;;;;;;;;;;;18.20;79.50;;;;;;5039752;27;75134;-38
2023/10/25 07:04:23;;;;;;;;;;;18.20;79.30;;;;;;5035096;27;73207;-38
2023/10/25 07:06:49;;;;;;;;;;;18.30;79.30;;;;;;5032997;27;75584;-40
2023/10/25 07:09:15;;;;;;;;;;;18.30;79.30;;;;;;5035363;27;76780;-40
2023/10/25 07:11:41;;;;;;;;;;;18.20;78.10;;;;;;5032776;27;77502;-41
2023/10/25 07:14:06;;;;;;;;;;;18.10;75.80;;;;;;5026587;27;76592;-41
2023/10/25 07:16:32;;;;;;;;;;;18.10;77.30;;;;;;5034516;27;72202;-38
2023/10/25 07:18:57;;;;;;;;;;;18.10;77.10;;;;;;5036101;27;75013;-38
2023/10/25 07:21:23;;;;;;;;;;;18.10;77.90;;;;;;5034057;27;79148;-37
2023/10/25 07:23:48;;;;;;;;;;;18.10;78.20;;;;;;5043436;27;77742;-38
2023/10/25 07:26:14;;;;;;;;;;;18.20;78.50;;;;;;5025747;27;75691;-38
2023/10/25 07:28:39;;;;;;;;;;;18.20;78.40;;;;;;5044516;27;72065;-38
2023/10/25 07:31:05;;;;;;;;;;;18.20;78.50;;;;;;5043922;27;77752;-37
2023/10/25 07:33:30;;;;;;;;;;;18.20;78.30;;;;;;5041074;27;75029;-38
2023/10/25 07:35:56;;;;;;;;;;;18.20;78.40;;;;;;5042017;27;77532;-38
2023/10/25 07:38:21;;;;;;;;;;;18.20;78.50;;;;;;5046909;27;74768;-39
2023/10/25 07:40:49;;;;;;;;;;;18.20;78.40;;;;;;5028630;27;74915;-39
2023/10/25 07:43:14;;;;;;;;;;;18.20;78.10;;;;;;5033483;27;75014;-38
2023/10/25 07:45:40;;;;;;;;;;;18.30;78.30;;;;;;5036159;27;78188;-38
2023/10/25 07:48:05;;;;;;;;;;;18.30;78.10;;;;;;5033286;27;75628;-38
2023/10/25 07:50:31;;;;;;;;;;;18.30;78.10;;;;;;5033032;27;75155;-38
2023/10/25 07:52:57;;;;;;;;;;;18.30;78.10;;;;;;5036847;27;74780;-37
2023/10/25 07:55:22;;;;;;;;;;;18.30;78.20;;;;;;5016794;27;73422;-36
2023/10/25 07:57:48;;;;;;;;;;;18.30;78.20;;;;;;5032927;27;74549;-36
2023/10/25 08:00:13;;;;;;;;;;;18.30;78.10;;;;;;5035139;27;78444;-37
2023/10/25 08:02:39;;;;;;;;;;;18.30;78.00;;;;;;5036083;27;71682;-37
2023/10/25 08:05:04;;;;;;;;;;;18.30;78.00;;;;;;5038731;27;76712;-37
2023/10/25 08:07:31;;;;;;;;;;;18.30;78.10;;;;;;5035634;27;75247;-37
2023/10/25 08:09:57;;;;;;;;;;;18.30;78.00;;;;;;5036510;27;77136;-36
2023/10/25 08:12:22;;;;;;;;;;;18.30;77.80;;;;;;5033134;27;73308;-36
2023/10/25 08:14:48;;;;;;;;;;;18.30;78.30;;;;;;5038231;27;77549;-37
2023/10/25 08:17:13;;;;;;;;;;;18.40;78.50;;;;;;5035406;27;73207;-37
2023/10/25 08:19:39;;;;;;;;;;;18.40;78.80;;;;;;5035597;27;77470;-38
2023/10/25 08:22:08;;;;;;;;;;;18.40;78.70;;;;;;5034820;27;73223;-38
2023/10/25 08:24:34;;;;;;;;;;;18.40;78.50;;;;;;5046180;27;78625;-38
2023/10/25 08:26:59;;;;;;;;;;;18.40;78.70;;;;;;5039029;27;75668;-38
2023/10/25 08:29:25;;;;;;;;;;;18.50;78.50;;;;;;5041509;27;74709;-39
2023/10/25 08:31:51;;;;;;;;;;;18.40;78.60;;;;;;5040426;27;74313;-38
2023/10/25 08:34:17;;;;;;;;;;;18.40;78.60;;;;;;5042294;27;74209;-38
2023/10/25 08:36:42;;;;;;;;;;;18.50;78.60;;;;;;5035286;27;77676;-37
2023/10/25 08:39:08;;;;;;;;;;;18.40;78.60;;;;;;5045511;27;76978;-39
2023/10/25 08:41:35;;;;;;;;;;;18.40;78.40;;;;;;5042727;27;74509;-38
2023/10/25 08:44:02;;;;;;;;;;;18.40;78.10;;;;;;5031286;27;73422;-37
2023/10/25 08:46:28;;;;;;;;;;;18.40;78.50;;;;;;5035410;27;75391;-37
2023/10/25 08:48:55;;;;;;;;;;;18.50;77.90;;;;;;5040681;27;72670;-37
2023/10/25 08:51:21;;;;;;;;;;;18.50;78.00;;;;;;5040779;27;76483;-38
2023/10/25 08:53:47;;;;;;;;;;;18.50;77.40;;;;;;5030532;27;77069;-39
2023/10/25 08:56:13;;;;;;;;;;;18.50;78.20;;;;;;5027540;27;76342;-40
2023/10/25 08:58:39;;;;;;;;;;;18.60;78.30;;;;;;5033089;27;78251;-39
2023/10/25 09:01:04;;;;;;;;;;;18.50;78.40;;;;;;5034596;27;76535;-39
2023/10/25 09:03:30;;;;;;;;;;;18.60;78.10;;;;;;5037230;27;72174;-38
2023/10/25 09:05:55;;;;;;;;;;;18.50;78.10;;;;;;5040487;27;74798;-39
2023/10/25 09:08:21;;;;;;;;;;;18.50;77.80;;;;;;5046617;27;74385;-37
2023/10/25 09:10:56;;;;;;;;;;;18.50;78.10;;;;;;5043637;27;72261;-39
2023/10/25 09:13:22;;;;;;;;;;;18.50;78.10;;;;;;5034309;27;77785;-42
2023/10/25 09:15:48;;;;;;;;;;;18.50;78.20;;;;;;5041560;27;76750;-37
2023/10/25 09:18:14;;;;;;;;;;;18.40;78.00;;;;;;5034532;27;76377;-37
2023/10/25 09:20:39;;;;;;;;;;;18.50;78.10;;;;;;5035397;27;75215;-38
2023/10/25 09:23:08;;;;;;;;;;;18.50;77.90;;;;;;5040195;27;76584;-38
2023/10/25 09:25:34;;;;;;;;;;;18.50;77.70;;;;;;5041291;27;73215;-37
2023/10/25 09:27:59;;;;;;;;;;;18.50;77.60;;;;;;5041194;27;76665;-38
2023/10/25 09:30:28;;;;;;;;;;;18.40;77.80;;;;;;5043413;27;73595;-37
2023/10/25 09:32:54;;;;;;;;;;;18.50;77.80;;;;;;5038047;27;73805;-41
2023/10/25 09:35:19;;;;;;;;;;;18.50;77.90;;;;;;5046328;27;77790;-42
2023/10/25 09:37:45;;;;;;;;;;;18.50;77.80;;;;;;5037336;27;79209;-41
2023/10/25 09:40:11;;;;;;;;;;;18.40;77.90;;;;;;5040314;27;76341;-43
2023/10/25 09:42:38;;;;;;;;;;;18.40;78.20;;;;;;5044598;27;78290;-41
2023/10/25 09:45:05;;;;;;;;;;;18.40;78.10;;;;;;5039987;27;76434;-41
2023/10/25 09:47:35;;;;;;;;;;;18.40;78.00;;;;;;5034404;27;77760;-38
2023/10/25 09:50:06;;;;;;;;;;;18.40;78.10;;;;;;5035355;27;76643;-37
2023/10/25 09:52:34;;;;;;;;;;;18.50;77.80;;;;;;5035709;27;75777;-37
2023/10/25 09:55:07;;;;;;;;;;;18.50;77.70;;;;;;5042184;27;74502;-37
2023/10/25 09:57:33;;;;;;;;;;;18.60;77.50;;;;;;5034986;27;74290;-38
2023/10/25 09:59:59;;;;;;;;;;;18.60;77.40;;;;;;5033669;27;74650;-37
2023/10/25 10:02:46;;;;;;;;;;;18.50;77.40;;;;;;5039441;27;75781;-38
2023/10/25 10:05:25;;;;;;;;;;;18.50;77.30;;;;;;5037782;27;74071;-37
2023/10/25 10:08:08;;;;;;;;;;;18.60;77.40;;;;;;5041527;27;77303;-37
2023/10/25 10:10:54;;;;;;;;;;;18.60;77.20;;;;;;5034467;27;75276;-37
2023/10/25 10:13:20;;;;;;;;;;;18.60;77.00;;;;;;5010824;27;74436;-36
2023/10/25 10:16:02;;;;;;;;;;;18.60;77.10;;;;;;5036296;27;75277;-38
2023/10/25 10:18:34;;;;;;;;;;;18.60;77.20;;;;;;5033581;27;74896;-36
2023/10/25 10:21:03;;;;;;;;;;;18.60;77.00;;;;;;5038665;27;78879;-36
2023/10/25 10:23:33;;;;;;;;;;;18.60;77.10;;;;;;5043057;27;76776;-36
2023/10/25 10:25:59;;;;;;;;;;;18.60;77.20;;;;;;5044518;27;77212;-36
2023/10/25 10:28:36;;;;;;;;;;;18.60;77.10;;;;;;5042509;27;75899;-38
2023/10/25 10:31:01;;;;;;;;;;;18.50;77.30;;;;;;5042241;27;74707;-36
2023/10/25 10:33:27;;;;;;;;;;;18.50;77.30;;;;;;5040130;27;72451;-36
2023/10/25 10:35:58;;;;;;;;;;;18.50;77.40;;;;;;5038762;27;75473;-37
2023/10/25 10:38:24;;;;;;;;;;;18.50;77.10;;;;;;5041791;27;76828;-37
2023/10/25 10:40:52;;;;;;;;;;;18.50;77.90;;;;;;5037258;27;75031;-37
2023/10/25 10:43:20;;;;;;;;;;;18.50;77.30;;;;;;5037857;27;74522;-36
2023/10/25 10:45:50;;;;;;;;;;;18.50;77.20;;;;;;5036312;27;78080;-37
2023/10/25 10:48:19;;;;;;;;;;;18.40;77.20;;;;;;5036366;27;75289;-37
2023/10/25 10:50:47;;;;;;;;;;;18.50;77.10;;;;;;5036643;27;70179;-37
2023/10/25 10:53:12;;;;;;;;;;;18.50;77.00;;;;;;5046667;27;76251;-36
2023/10/25 10:55:40;;;;;;;;;;;18.50;76.90;;;;;;5034926;27;75055;-36
2023/10/25 10:58:05;;;;;;;;;;;18.50;77.20;;;;;;5033670;27;74431;-36
2023/10/25 11:00:31;;;;;;;;;;;18.60;76.60;;;;;;5043982;27;76421;-36
2023/10/25 11:02:59;;;;;;;;;;;18.60;76.50;;;;;;5040331;27;74978;-37
2023/10/25 11:05:25;;;;;;;;;;;18.60;76.30;;;;;;5036165;27;74138;-37
2023/10/25 11:07:51;;;;;;;;;;;18.60;76.20;;;;;;5034268;27;77785;-36
2023/10/25 11:10:16;;;;;;;;;;;18.60;76.20;;;;;;5039108;27;77455;-37
2023/10/25 11:12:42;;;;;;;;;;;18.60;76.00;;;;;;5043485;27;74118;-37
2023/10/25 11:15:09;;;;;;;;;;;18.70;76.20;;;;;;5022899;27;72921;-36
2023/10/25 11:17:34;;;;;;;;;;;18.70;76.30;;;;;;5046413;27;81692;-37
2023/10/25 11:20:00;;;;;;;;;;;18.60;76.40;;;;;;5031955;27;75162;-37
2023/10/25 11:22:26;;;;;;;;;;;18.60;76.50;;;;;;5026431;27;76153;-38
2023/10/25 11:24:52;;;;;;;;;;;18.60;76.40;;;;;;5034750;27;76727;-38
2023/10/25 11:27:17;;;;;;;;;;;18.70;76.00;;;;;;5031681;27;76092;-37
2023/10/25 11:29:43;;;;;;;;;;;18.70;76.30;;;;;;5035318;27;75305;-36
2023/10/25 11:32:12;;;;;;;;;;;18.80;76.40;;;;;;5033937;27;76627;-38
2023/10/25 11:34:42;;;;;;;;;;;18.80;76.30;;;;;;5041013;27;75685;-39
2023/10/25 11:37:08;;;;;;;;;;;18.80;76.40;;;;;;5041655;27;78464;-37
2023/10/25 11:39:53;;;;;;;;;;;18.80;76.20;;;;;;5038850;27;75824;-40
2023/10/25 11:42:19;;;;;;;;;;;18.80;76.30;;;;;;5038197;27;75128;-43
2023/10/25 11:44:44;;;;;;;;;;;18.80;76.40;;;;;;5016152;27;78277;-37
2023/10/25 11:47:16;;;;;;;;;;;18.80;76.50;;;;;;5038702;27;79161;-37
2023/10/25 11:49:42;;;;;;;;;;;18.80;76.40;;;;;;5029055;27;73920;-37
2023/10/25 11:52:07;;;;;;;;;;;18.90;76.60;;;;;;5034671;27;73994;-38
2023/10/25 11:54:32;;;;;;;;;;;18.90;76.40;;;;;;5020110;27;79347;-37
2023/10/25 11:56:58;;;;;;;;;;;18.90;76.90;;;;;;5038062;27;73006;-36
2023/10/25 11:59:23;;;;;;;;;;;19.00;76.80;;;;;;5045607;27;78109;-36
2023/10/25 12:01:49;;;;;;;;;;;19.00;76.70;;;;;;5021967;27;74321;-36
2023/10/25 12:04:14;;;;;;;;;;;19.00;76.60;;;;;;5040287;27;74371;-37
2023/10/25 12:06:40;;;;;;;;;;;19.00;76.50;;;;;;5033017;27;76702;-37
2023/10/25 12:09:05;;;;;;;;;;;19.00;76.60;;;;;;5040403;27;73034;-37
2023/10/25 12:11:31;;;;;;;;;;;19.00;76.40;;;;;;5032072;27;78586;-38
2023/10/25 12:13:57;;;;;;;;;;;19.00;76.50;;;;;;5027532;27;75405;-38
2023/10/25 12:16:23;;;;;;;;;;;19.00;76.50;;;;;;5038023;27;74907;-36
2023/10/25 12:18:49;;;;;;;;;;;19.00;76.50;;;;;;5037750;27;74083;-37
2023/10/25 12:21:14;;;;;;;;;;;19.00;76.30;;;;;;5036375;27;73324;-35
2023/10/25 12:23:40;;;;;;;;;;;19.00;76.20;;;;;;5043698;27;72434;-36
2023/10/25 12:26:06;;;;;;;;;;;19.10;77.30;;;;;;5042317;27;76851;-36
2023/10/25 12:28:31;;;;;;;;;;;19.20;76.90;;;;;;5036377;27;74990;-37
2023/10/25 12:30:57;;;;;;;;;;;19.30;77.00;;;;;;5033271;27;79597;-36
2023/10/25 12:33:22;;;;;;;;;;;19.40;76.80;;;;;;5034452;27;76668;-36
2023/10/25 12:35:49;;;;;;;;;;;19.50;76.50;;;;;;5038050;27;74323;-37
2023/10/25 12:38:15;;;;;;;;;;;19.50;76.60;;;;;;5042059;27;75849;-37
2023/10/25 12:40:40;;;;;;;;;;;19.60;76.90;;;;;;5038369;27;75794;-37
2023/10/25 12:43:06;;;;;;;;;;;19.60;77.00;;;;;;5045374;27;72395;-37
2023/10/25 12:45:31;;;;;;;;;;;19.60;77.20;;;;;;5041619;27;74452;-36
2023/10/25 12:47:57;;;;;;;;;;;19.60;77.10;;;;;;5041478;27;75614;-36
2023/10/25 12:50:23;;;;;;;;;;;19.70;77.20;;;;;;5038624;27;73940;-36
2023/10/25 12:52:49;;;;;;;;;;;19.80;77.40;;;;;;5035984;27;77095;-37
2023/10/25 12:55:15;;;;;;;;;;;19.80;77.00;;;;;;5036194;27;75515;-37
2023/10/25 12:57:40;;;;;;;;;;;19.80;77.30;;;;;;5044380;27;71259;-37
2023/10/25 13:00:08;;;;;;;;;;;19.90;77.30;;;;;;5038510;27;75687;-38
2023/10/25 13:02:37;;;;;;;;;;;19.90;77.20;;;;;;5042205;27;78744;-35
2023/10/25 13:05:03;;;;;;;;;;;20.00;77.30;;;;;;5036399;27;77304;-35
2023/10/25 13:07:30;;;;;;;;;;;20.00;77.10;;;;;;5035656;27;77552;-36
2023/10/25 13:09:55;;;;;;;;;;;20.00;77.40;;;;;;5035683;27;73639;-36
2023/10/25 13:12:21;;;;;;;;;;;20.10;77.60;;;;;;5041368;27;76628;-36
2023/10/25 13:14:47;;;;;;;;;;;20.10;77.60;;;;;;5035189;27;75751;-38
2023/10/25 13:17:13;;;;;;;;;;;20.10;77.60;;;;;;5033256;27;74199;-39
2023/10/25 13:19:38;;;;;;;;;;;20.10;77.30;;;;;;5037614;27;78830;-36
2023/10/25 13:22:04;;;;;;;;;;;20.10;77.20;;;;;;5038550;27;78019;-36
2023/10/25 13:24:29;;;;;;;;;;;20.20;77.60;;;;;;5039942;27;79170;-36
2023/10/25 13:26:55;;;;;;;;;;;20.20;77.30;;;;;;5036493;27;74388;-36
2023/10/25 13:29:20;;;;;;;;;;;20.20;77.60;;;;;;5038463;27;74017;-37
2023/10/25 13:31:46;;;;;;;;;;;20.30;77.60;;;;;;5035607;27;72402;-39
2023/10/25 13:34:11;;;;;;;;;;;20.30;77.10;;;;;;5035837;27;78630;-39
2023/10/25 13:36:37;;;;;;;;;;;20.30;77.10;;;;;;5042208;27;77356;-40
2023/10/25 13:39:03;;;;;;;;;;;20.30;77.10;;;;;;5026617;27;77273;-37
2023/10/25 13:41:29;;;;;;;;;;;20.30;76.80;;;;;;5036852;27;75329;-37
2023/10/25 13:43:54;;;;;;;;;;;20.10;73.20;;;;;;5036977;27;76073;-38
2023/10/25 13:46:19;;;;;;;;;;;19.90;72.50;;;;;;5035159;27;73795;-38
2023/10/25 13:48:45;;;;;;;;;;;19.70;72.80;;;;;;5039640;27;75738;-39
2023/10/25 13:51:10;;;;;;;;;;;19.70;72.80;;;;;;5036068;27;73300;-39
2023/10/25 13:53:36;;;;;;;;;;;19.60;73.00;;;;;;5039896;27;73560;-40
2023/10/25 13:56:02;;;;;;;;;;;19.60;73.00;;;;;;5044576;27;74290;-38
2023/10/25 13:58:31;;;;;;;;;;;19.50;72.90;;;;;;5035512;27;76793;-38
2023/10/25 14:01:00;;;;;;;;;;;19.60;72.90;;;;;;5038216;27;77657;-38
2023/10/25 14:03:26;;;;;;;;;;;19.60;73.00;;;;;;5044072;27;73381;-38
2023/10/25 14:05:51;;;;;;;;;;;19.50;73.00;;;;;;5041590;27;76847;-40
2023/10/25 14:08:19;;;;;;;;;;;19.50;73.00;;;;;;5041119;27;75609;-38
2023/10/25 14:10:45;;;;;;;;;;;19.50;72.90;;;;;;5047400;27;74194;-38